Time;durP1;ratioP1;P1;durP2;ratioP2;P2;SDS_P1;SDS_P2;PMS_P1;PMS_P2;Temp;Humidity;BMP_temperature;BMP_pressure;BME280_temperature;BME280_humidity;BME280_pressure;Samples;Min_cycle;Max_cycle;Signal;HPM_P1;HPM_P2
2021/12/28 00:01:19;;;;;;;6.45;3.35;;;;;;;-15.04;69.03;100323.41;5021240;28;20052;-76
2021/12/28 00:03:53;;;;;;;5.90;3.67;;;;;;;-14.81;68.86;100343.78;5021850;28;20061;-77
2021/12/28 00:06:24;;;;;;;9.10;3.60;;;;;;;-14.79;68.49;100317.22;5021918;28;20260;-77
2021/12/28 00:08:54;;;;;;;10.10;3.85;;;;;;;-14.46;68.19;100342.47;5021780;28;20053;-76
2021/12/28 00:11:25;;;;;;;6.90;3.85;;;;;;;-14.25;67.94;100343.34;5021715;28;20086;-77
2021/12/28 00:14:01;;;;;;;7.85;3.80;;;;;;;-14.11;68.24;100342.84;5021620;28;20049;-76
2021/12/28 00:17:58;;;;;;;11.75;4.05;;;;;;;-14.00;68.55;100347.16;5021560;28;20050;-77
2021/12/28 00:19:26;;;;;;;10.63;3.65;;;;;;;-13.77;68.08;100355.66;5021503;28;20274;-78
2021/12/28 00:21:57;;;;;;;7.80;3.75;;;;;;;-13.58;67.71;100348.84;5021204;28;20084;-77
2021/12/28 00:24:28;;;;;;;7.20;3.88;;;;;;;-13.42;67.24;100347.56;5021367;28;20250;-77
2021/12/28 00:26:58;;;;;;;5.60;3.53;;;;;;;-13.35;67.25;100347.28;5021408;28;20068;-76
2021/12/28 00:29:30;;;;;;;6.50;3.05;;;;;;;-13.30;67.16;100335.97;5021432;28;20057;-77
2021/12/28 00:32:01;;;;;;;7.63;3.00;;;;;;;-13.36;67.03;100345.53;5021336;28;20085;-76
2021/12/28 00:34:34;;;;;;;3.47;2.90;;;;;;;-13.45;67.19;100339.75;5022120;28;20068;-76
2021/12/28 00:37:06;;;;;;;4.43;3.08;;;;;;;-13.53;67.05;100355.09;5025060;28;20226;-76
2021/12/28 00:39:36;;;;;;;4.30;3.15;;;;;;;-13.51;67.34;100352.72;5024217;28;20068;-76
2021/12/28 00:42:09;;;;;;;4.90;3.58;;;;;;;-13.42;67.22;100345.94;5024529;28;20046;-76
2021/12/28 00:44:39;;;;;;;8.43;3.47;;;;;;;-13.32;67.19;100350.06;5023623;28;20289;-77
2021/12/28 00:47:10;;;;;;;7.93;3.47;;;;;;;-13.33;66.90;100345.75;5023790;28;20120;-76
2021/12/28 00:49:43;;;;;;;6.97;3.17;;;;;;;-13.54;67.08;100315.66;5023163;28;20080;-76
2021/12/28 00:52:14;;;;;;;4.40;3.35;;;;;;;-13.34;67.22;100349.06;5022999;28;20058;-76
2021/12/28 00:54:45;;;;;;;6.15;3.30;;;;;;;-13.24;67.74;100351.50;5022454;28;20054;-76
2021/12/28 00:57:15;;;;;;;6.05;3.55;;;;;;;-13.13;67.38;100337.25;5021953;28;20049;-76
2021/12/28 00:59:46;;;;;;;7.50;3.95;;;;;;;-12.96;67.33;100348.63;5022065;28;20077;-76
2021/12/28 01:02:17;;;;;;;6.63;3.63;;;;;;;-12.98;67.12;100355.16;5021583;28;20058;-76
2021/12/28 01:04:50;;;;;;;5.55;4.10;;;;;;;-13.04;67.20;100351.41;5021397;28;20061;-77
2021/12/28 01:07:20;;;;;;;8.50;4.00;;;;;;;-12.86;67.28;100346.06;5021151;28;20053;-77
2021/12/28 01:09:51;;;;;;;4.40;3.38;;;;;;;-12.89;66.75;100345.84;5021233;28;20046;-77
2021/12/28 01:12:22;;;;;;;5.82;3.35;;;;;;;-12.70;66.76;100328.88;5021004;28;20054;-76
2021/12/28 01:14:53;;;;;;;7.20;3.83;;;;;;;-12.48;66.27;100340.56;5021220;28;20060;-77
2021/12/28 01:17:24;;;;;;;6.95;3.50;;;;;;;-12.34;65.68;100334.94;5021416;28;20046;-77
2021/12/28 01:19:57;;;;;;;7.53;4.07;;;;;;;-12.22;65.62;100328.31;5021263;28;20314;-77
2021/12/28 01:22:27;;;;;;;6.65;4.05;;;;;;;-11.85;65.13;100333.53;5020660;28;20118;-76
2021/12/28 01:24:58;;;;;;;7.05;3.65;;;;;;;-11.63;64.72;100320.84;5021009;28;20054;-76
2021/12/28 01:27:29;;;;;;;6.03;3.20;;;;;;;-11.51;63.77;100321.69;5020774;28;20046;-76
2021/12/28 01:29:59;;;;;;;5.15;3.05;;;;;;;-11.59;63.53;100311.84;5020974;28;20061;-76
2021/12/28 01:32:31;;;;;;;4.57;2.90;;;;;;;-11.55;63.32;100318.88;5020553;28;20100;-76
2021/12/28 01:35:04;;;;;;;11.13;3.05;;;;;;;-11.65;63.25;100311.41;5020937;28;20073;-76
2021/12/28 01:37:35;;;;;;;8.27;3.42;;;;;;;-11.75;63.44;100315.78;5020913;28;20112;-77
2021/12/28 01:40:08;;;;;;;8.48;3.47;;;;;;;-11.76;63.50;100314.00;4996784;28;20067;-77
2021/12/28 01:42:57;;;;;;;6.32;3.30;;;;;;;-11.67;63.79;100307.91;5034380;28;20057;-76
2021/12/28 01:45:42;;;;;;;6.10;3.03;;;;;;;-11.79;63.85;100303.72;5035330;28;20060;-76
2021/12/28 01:48:28;;;;;;;6.75;3.65;;;;;;;-11.87;64.16;100314.06;5043124;28;20045;-76
2021/12/28 01:51:03;;;;;;;8.63;3.50;;;;;;;-11.87;63.70;100319.09;5036757;28;20088;-76
2021/12/28 01:53:33;;;;;;;5.55;3.28;;;;;;;-12.00;63.40;100322.34;5047957;28;20143;-77
2021/12/28 01:56:08;;;;;;;6.88;3.58;;;;;;;-12.01;64.81;100325.63;5049110;28;20339;-78
2021/12/28 01:58:39;;;;;;;6.70;3.00;;;;;;;-12.34;64.00;100259.41;5044445;28;20108;-78
2021/12/28 02:01:11;;;;;;;6.35;4.07;;;;;;;-11.98;63.63;100320.81;5045632;28;20045;-78
2021/12/28 02:03:45;;;;;;;6.20;3.80;;;;;;;-11.82;64.03;100318.63;5057695;28;20057;-79
2021/12/28 02:06:57;;;;;;;9.07;3.90;;;;;;;-11.80;63.29;100301.97;5058659;28;20045;-78
2021/12/28 02:09:30;;;;;;;8.93;3.30;;;;;;;-11.75;63.28;100309.88;5044097;28;20047;-78
2021/12/28 02:12:00;;;;;;;4.72;2.95;;;;;;;-11.85;63.25;100288.16;5043802;28;20073;-77
2021/12/28 02:14:31;;;;;;;6.00;3.20;;;;;;;-11.79;62.91;100283.56;5041294;28;20052;-78
2021/12/28 02:17:04;;;;;;;7.97;3.70;;;;;;;-11.78;62.36;100285.31;5039421;28;20059;-77
2021/12/28 02:19:35;;;;;;;5.45;3.08;;;;;;;-11.82;62.04;100278.31;5036318;28;20088;-78
2021/12/28 02:22:08;;;;;;;4.90;2.92;;;;;;;-11.73;61.63;100284.00;5036549;28;20073;-78
2021/12/28 02:24:38;;;;;;;5.15;3.33;;;;;;;-11.87;61.63;100273.72;5042345;28;20057;-78
2021/12/28 02:27:10;;;;;;;7.20;3.25;;;;;;;-11.94;61.83;100272.41;5032732;28;20065;-79
2021/12/28 02:29:41;;;;;;;5.05;3.08;;;;;;;-11.89;62.00;100276.13;5032753;28;20041;-78
2021/12/28 02:32:12;;;;;;;4.63;2.60;;;;;;;-11.76;62.15;100273.69;5032204;28;20300;-79
2021/12/28 02:34:45;;;;;;;5.88;2.85;;;;;;;-11.57;61.75;100264.94;5035624;28;20064;-78
2021/12/28 02:37:18;;;;;;;4.10;2.65;;;;;;;-11.24;61.80;100270.59;5036086;28;20099;-78
2021/12/28 02:39:49;;;;;;;3.60;2.40;;;;;;;-11.17;61.20;100263.56;5037759;28;20061;-78
2021/12/28 02:42:22;;;;;;;3.85;2.30;;;;;;;-10.93;60.77;100264.41;5037675;28;20124;-78
2021/12/28 02:45:02;;;;;;;3.05;2.42;;;;;;;-10.80;59.84;100265.25;5035224;28;20084;-79
2021/12/28 02:47:33;;;;;;;5.67;2.40;;;;;;;-10.72;59.73;100261.59;5037072;28;20050;-79
2021/12/28 02:50:04;;;;;;;3.22;2.25;;;;;;;-10.70;59.83;100255.00;5038664;28;20320;-77
2021/12/28 02:52:39;;;;;;;3.38;1.95;;;;;;;-10.63;59.72;100254.66;5046450;28;20476;-79
2021/12/28 02:55:14;;;;;;;2.60;2.30;;;;;;;-10.70;59.29;100248.28;5044008;28;20117;-78
2021/12/28 02:57:49;;;;;;;5.28;2.33;;;;;;;-10.35;59.71;100259.00;5041713;28;20057;-78
2021/12/28 03:00:35;;;;;;;3.20;2.45;;;;;;;-10.29;58.79;100256.88;5039934;28;20060;-78
2021/12/28 03:03:09;;;;;;;5.50;2.67;;;;;;;-10.28;59.76;100258.63;5040350;28;20123;-78
2021/12/28 03:05:40;;;;;;;6.32;2.05;;;;;;;-10.29;58.31;100252.69;5038882;28;20117;-78
2021/12/28 03:08:14;;;;;;;2.17;2.00;;;;;;;-10.36;58.81;100249.66;5039444;28;20253;-78
2021/12/28 03:10:46;;;;;;;2.83;1.80;;;;;;;-10.74;58.60;100230.31;5036307;28;20245;-78
2021/12/28 03:13:19;;;;;;;3.50;1.45;;;;;;;-10.59;59.19;100261.63;5039584;28;20081;-79
2021/12/28 03:15:51;;;;;;;2.28;1.85;;;;;;;-10.69;59.61;100254.22;5041048;28;20046;-79
2021/12/28 03:18:22;;;;;;;3.45;2.20;;;;;;;-11.06;59.57;100206.28;5038613;28;20084;-80
2021/12/28 03:20:53;;;;;;;5.03;2.40;;;;;;;-10.96;59.98;100230.50;5040535;28;20042;-78
2021/12/28 03:23:27;;;;;;;1.85;1.73;;;;;;;-10.99;60.13;100258.91;5040103;28;20081;-78
2021/12/28 03:25:59;;;;;;;2.08;1.90;;;;;;;-11.18;60.67;100238.22;5034925;28;20301;-78
2021/12/28 03:28:32;;;;;;;5.50;2.30;;;;;;;-11.23;60.96;100242.06;5040922;28;20396;-79
2021/12/28 03:31:07;;;;;;;3.78;2.40;;;;;;;-11.16;61.55;100254.34;5037117;28;20049;-78
2021/12/28 03:33:40;;;;;;;5.05;2.38;;;;;;;-11.20;61.56;100253.28;5041426;28;20049;-78
2021/12/28 03:36:12;;;;;;;4.72;2.20;;;;;;;-11.10;61.58;100260.72;5040997;28;20049;-78
2021/12/28 03:38:45;;;;;;;4.60;2.10;;;;;;;-11.08;61.63;100244.03;5040603;28;20054;-79
2021/12/28 03:41:18;;;;;;;4.85;2.10;;;;;;;-11.16;61.71;100219.03;5040950;28;20052;-78
2021/12/28 03:43:51;;;;;;;2.83;2.35;;;;;;;-10.78;61.68;100253.56;5040401;28;20053;-78
2021/12/28 03:46:23;;;;;;;3.53;2.25;;;;;;;-10.86;61.93;100246.38;5038071;28;20053;-78
2021/12/28 03:48:54;;;;;;;7.32;2.03;;;;;;;-10.84;61.54;100245.59;5038681;28;20076;-77
2021/12/28 03:51:25;;;;;;;2.25;1.90;;;;;;;-10.86;61.37;100256.50;5036942;28;20121;-77
2021/12/28 03:53:58;;;;;;;5.15;2.15;;;;;;;-10.91;61.23;100252.75;5035863;28;20300;-78
2021/12/28 03:56:29;;;;;;;3.28;1.95;;;;;;;-10.88;61.34;100257.16;5039611;28;20052;-78
2021/12/28 03:59:00;;;;;;;3.42;2.10;;;;;;;-10.92;61.08;100245.94;5040163;28;20049;-77
2021/12/28 04:01:31;;;;;;;5.22;1.98;;;;;;;-11.08;61.04;100240.66;5040418;28;20371;-77
2021/12/28 04:04:02;;;;;;;4.95;2.20;;;;;;;-11.11;61.82;100253.03;5040640;28;20061;-78
2021/12/28 04:06:34;;;;;;;5.22;1.90;;;;;;;-11.26;62.48;100251.97;5040475;28;20133;-77
2021/12/28 04:09:11;;;;;;;4.20;2.00;;;;;;;-11.44;63.52;100254.94;5040545;28;20058;-78
2021/12/28 04:11:41;;;;;;;2.47;1.85;;;;;;;-11.56;63.78;100251.56;5040090;28;20053;-78
2021/12/28 04:14:12;;;;;;;4.20;1.90;;;;;;;-11.66;64.56;100255.06;5040459;28;20076;-77
2021/12/28 04:16:43;;;;;;;5.20;2.13;;;;;;;-11.71;65.01;100251.34;5039932;28;20112;-78
2021/12/28 04:19:14;;;;;;;2.22;2.03;;;;;;;-11.88;65.33;100247.66;5040495;28;20410;-78
2021/12/28 04:21:45;;;;;;;3.42;2.33;;;;;;;-11.95;65.25;100245.47;5040804;28;20067;-78
2021/12/28 04:24:18;;;;;;;3.83;2.17;;;;;;;-11.70;65.70;100262.28;5037986;28;20100;-78
2021/12/28 04:26:49;;;;;;;4.22;2.25;;;;;;;-11.75;65.55;100265.38;5038906;28;20124;-78
2021/12/28 04:29:19;;;;;;;8.00;2.60;;;;;;;-11.78;65.79;100255.09;5037183;28;20068;-78
2021/12/28 04:31:50;;;;;;;2.78;2.20;;;;;;;-11.66;65.83;100269.31;5038154;28;20292;-78
2021/12/28 04:34:22;;;;;;;3.05;2.30;;;;;;;-11.90;65.78;100229.03;5036083;28;20057;-78
2021/12/28 04:36:52;;;;;;;5.32;2.35;;;;;;;-11.77;65.58;100268.56;5034153;28;20616;-77
2021/12/28 04:39:26;;;;;;;4.25;2.15;;;;;;;-12.00;66.48;100242.59;5039423;28;20049;-78
2021/12/28 04:41:57;;;;;;;6.53;2.60;;;;;;;-11.85;66.76;100278.09;5039345;28;20053;-78
2021/12/28 04:44:28;;;;;;;2.92;2.17;;;;;;;-11.81;66.21;100275.00;5039691;28;20045;-77
2021/12/28 04:46:59;;;;;;;7.40;2.50;;;;;;;-11.77;66.38;100271.94;5039734;28;20053;-78
2021/12/28 04:49:30;;;;;;;2.65;2.13;;;;;;;-11.83;65.53;100276.56;5039969;28;20076;-78
2021/12/28 04:52:01;;;;;;;6.50;2.50;;;;;;;-11.89;65.55;100281.16;5040083;28;20053;-78
2021/12/28 04:54:36;;;;;;;5.88;2.20;;;;;;;-12.05;65.52;100278.31;5039378;28;20282;-78
2021/12/28 04:57:08;;;;;;;3.45;2.20;;;;;;;-12.04;65.76;100290.13;5039296;28;20128;-78
2021/12/28 04:59:39;;;;;;;3.88;2.22;;;;;;;-11.97;66.37;100292.34;5039869;28;20445;-78
2021/12/28 05:02:10;;;;;;;3.00;2.13;;;;;;;-12.04;65.81;100285.09;5040089;28;20383;-77
2021/12/28 05:04:41;;;;;;;6.28;2.30;;;;;;;-12.20;66.22;100283.09;5039104;28;20057;-78
2021/12/28 05:07:12;;;;;;;4.53;2.40;;;;;;;-12.10;66.10;100299.75;5034988;28;20049;-78
2021/12/28 05:09:45;;;;;;;3.72;2.40;;;;;;;-12.13;66.14;100304.56;5039153;28;20042;-78
2021/12/28 05:12:16;;;;;;;5.05;2.58;;;;;;;-12.24;66.01;100307.16;5034360;28;20053;-78
2021/12/28 05:14:47;;;;;;;5.80;2.55;;;;;;;-12.31;66.43;100304.06;5036934;28;20084;-79
2021/12/28 05:17:17;;;;;;;2.85;2.47;;;;;;;-12.28;66.42;100310.25;5037461;28;20245;-79
2021/12/28 05:19:48;;;;;;;2.90;2.60;;;;;;;-12.20;66.45;100315.84;5034108;28;20085;-77
2021/12/28 05:22:19;;;;;;;4.10;2.58;;;;;;;-12.10;65.85;100320.78;5039670;28;20049;-77
2021/12/28 05:24:52;;;;;;;4.05;2.70;;;;;;;-12.08;65.86;100318.38;5042659;28;20092;-78
2021/12/28 05:27:22;;;;;;;4.25;2.30;;;;;;;-12.05;65.88;100313.59;5043799;28;20414;-78
2021/12/28 05:29:53;;;;;;;4.18;1.90;;;;;;;-11.98;65.84;100320.81;5043232;28;20081;-79
2021/12/28 05:32:24;;;;;;;4.03;2.20;;;;;;;-12.23;65.71;100278.72;5039330;28;20265;-78
2021/12/28 05:34:55;;;;;;;5.32;2.55;;;;;;;-11.89;65.90;100334.09;5043247;28;20136;-79
2021/12/28 05:37:26;;;;;;;3.60;2.33;;;;;;;-11.85;65.75;100323.44;5043441;28;20112;-78
2021/12/28 05:39:59;;;;;;;16.08;6.63;;;;;;;-11.92;65.64;100331.34;5043547;28;20305;-78
2021/12/28 05:42:29;;;;;;;13.57;6.35;;;;;;;-11.90;65.73;100319.75;5043539;28;20398;-78
2021/12/28 05:45:00;;;;;;;19.73;8.20;;;;;;;-11.79;65.15;100333.97;5043260;28;20053;-79
2021/12/28 05:47:31;;;;;;;9.80;5.63;;;;;;;-11.88;65.03;100329.91;5043296;28;20111;-79
2021/12/28 05:50:02;;;;;;;9.90;4.55;;;;;;;-12.08;65.10;100333.47;5042861;28;20038;-79
2021/12/28 05:52:33;;;;;;;7.93;4.20;;;;;;;-12.11;65.14;100338.31;5042597;28;20057;-79
2021/12/28 05:55:06;;;;;;;4.63;3.13;;;;;;;-12.26;65.48;100348.97;5040044;28;20054;-78
2021/12/28 05:57:37;;;;;;;5.65;3.33;;;;;;;-12.39;65.79;100323.66;5040579;28;20099;-79
2021/12/28 06:00:11;;;;;;;5.15;2.10;;;;;;;-12.39;65.51;100343.78;5041686;28;20081;-78
2021/12/28 06:02:42;;;;;;;2.83;2.17;;;;;;;-12.54;65.78;100346.03;5035905;28;20056;-79
2021/12/28 06:05:13;;;;;;;2.35;2.08;;;;;;;-12.72;66.24;100345.50;5042769;28;20046;-79
2021/12/28 06:07:43;;;;;;;2.08;1.90;;;;;;;-12.85;67.01;100348.72;5042247;28;20109;-79
2021/12/28 06:10:16;;;;;;;3.05;2.00;;;;;;;-12.77;67.47;100356.84;5043043;28;20108;-79
2021/12/28 06:12:47;;;;;;;2.90;2.17;;;;;;;-12.92;67.69;100345.59;5041666;28;20073;-78
2021/12/28 06:15:18;;;;;;;3.47;2.00;;;;;;;-12.92;67.92;100354.03;5042964;28;20064;-79
2021/12/28 06:17:49;;;;;;;3.45;1.92;;;;;;;-12.99;68.22;100343.38;5042032;28;20084;-79
2021/12/28 06:20:20;;;;;;;2.80;1.90;;;;;;;-12.88;68.09;100357.63;5042386;28;20052;-78
2021/12/28 06:22:51;;;;;;;2.30;2.10;;;;;;;-12.88;68.08;100363.56;5042398;28;20046;-79
2021/12/28 06:25:23;;;;;;;3.22;2.00;;;;;;;-12.98;68.14;100365.22;5042262;28;20054;-78
2021/12/28 06:27:54;;;;;;;2.75;2.25;;;;;;;-13.06;68.22;100363.00;5034657;28;20049;-78
2021/12/28 06:30:25;;;;;;;2.67;2.38;;;;;;;-13.13;68.14;100365.78;5040814;28;20084;-79
2021/12/28 06:32:55;;;;;;;5.22;2.25;;;;;;;-13.27;68.35;100367.25;5041931;28;20053;-79
2021/12/28 06:35:27;;;;;;;2.30;2.10;;;;;;;-13.33;68.36;100375.94;5040040;28;20046;-78
2021/12/28 06:37:57;;;;;;;4.70;2.45;;;;;;;-13.51;68.07;100367.81;5038335;28;20049;-78
2021/12/28 06:40:30;;;;;;;8.35;3.50;;;;;;;-13.67;68.10;100378.28;5038564;28;20053;-78
2021/12/28 06:43:01;;;;;;;6.82;4.10;;;;;;;-13.77;68.20;100375.78;5040851;28;20112;-79
2021/12/28 06:45:31;;;;;;;8.45;4.28;;;;;;;-13.95;68.55;100365.06;5035695;28;20050;-78
2021/12/28 06:48:02;;;;;;;9.63;5.38;;;;;;;-14.01;68.44;100374.63;5041738;28;20076;-78
2021/12/28 06:50:34;;;;;;;6.95;4.00;;;;;;;-14.10;68.22;100379.78;5041494;28;20108;-79
2021/12/28 06:53:04;;;;;;;16.73;4.55;;;;;;;-14.25;67.99;100379.41;5041998;28;20084;-78
2021/12/28 06:55:37;;;;;;;15.15;7.32;;;;;;;-14.48;67.93;100382.47;5041659;28;20052;-79
2021/12/28 06:58:08;;;;;;;94.30;24.08;;;;;;;-14.81;67.87;100390.56;5026425;28;20113;-78
2021/12/28 07:00:39;;;;;;;40.28;14.20;;;;;;;-15.12;68.01;100394.56;5041960;28;20048;-78
2021/12/28 07:03:10;;;;;;;9.40;5.32;;;;;;;-15.39;68.42;100393.94;5042026;28;20041;-80
2021/12/28 07:05:41;;;;;;;10.50;4.78;;;;;;;-15.70;69.05;100396.28;5041052;28;20048;-77
2021/12/28 07:08:12;;;;;;;25.52;9.80;;;;;;;-15.96;69.60;100398.06;5039154;28;20408;-79
2021/12/28 07:10:45;;;;;;;126.32;34.65;;;;;;;-16.19;70.37;100386.84;5040883;28;20132;-79
2021/12/28 07:13:15;;;;;;;108.28;29.25;;;;;;;-16.21;71.02;100405.84;5041512;28;20057;-79
2021/12/28 07:15:46;;;;;;;124.15;30.77;;;;;;;-16.25;71.31;100413.78;5041133;28;20045;-79
2021/12/28 07:18:17;;;;;;;231.90;53.17;;;;;;;-16.37;71.45;100411.06;5041720;28;20051;-79
2021/12/28 07:20:49;;;;;;;226.77;50.53;;;;;;;-16.64;71.21;100414.41;5037828;28;20357;-79
2021/12/28 07:23:19;;;;;;;210.88;45.65;;;;;;;-16.79;71.55;100425.53;5039362;28;20471;-78
2021/12/28 07:25:53;;;;;;;177.57;42.33;;;;;;;-17.08;71.77;100411.16;5033471;28;20057;-78
2021/12/28 07:28:27;;;;;;;212.68;57.10;;;;;;;-17.28;71.96;100408.41;5034137;28;20054;-78
2021/12/28 07:30:57;;;;;;;198.57;53.65;;;;;;;-17.31;72.25;100418.09;5037829;28;20120;-78
2021/12/28 07:33:28;;;;;;;135.50;38.13;;;;;;;-17.33;71.94;100424.56;5041081;28;20061;-79
2021/12/28 07:35:59;;;;;;;86.85;27.13;;;;;;;-17.46;72.00;100425.88;5032481;28;20054;-79
2021/12/28 07:38:30;;;;;;;57.88;20.95;;;;;;;-17.67;72.08;100421.31;5037795;28;20352;-78
2021/12/28 07:41:02;;;;;;;47.88;15.05;;;;;;;-17.83;72.13;100429.84;5039893;28;20049;-78
2021/12/28 07:43:33;;;;;;;21.95;8.60;;;;;;;-17.99;72.50;100426.59;5040030;28;20045;-79
2021/12/28 07:46:04;;;;;;;12.27;5.82;;;;;;;-17.97;72.69;100434.22;5037476;28;20056;-79
2021/12/28 07:48:34;;;;;;;8.05;4.80;;;;;;;-18.02;73.01;100436.25;5046910;28;20100;-79
2021/12/28 07:51:07;;;;;;;5.25;3.97;;;;;;;-18.04;73.50;100437.75;5050532;28;20041;-77
2021/12/28 07:53:37;;;;;;;5.35;3.30;;;;;;;-18.01;73.76;100418.06;5049703;28;20048;-77
2021/12/28 07:56:10;;;;;;;2.85;2.65;;;;;;;-17.85;73.76;100436.28;5045830;28;20120;-78
2021/12/28 07:58:41;;;;;;;3.08;2.83;;;;;;;-17.92;73.33;100428.06;5047891;28;20084;-76
2021/12/28 08:01:11;;;;;;;8.63;3.28;;;;;;;-17.74;73.68;100443.91;5015324;28;20072;-75
2021/12/28 08:03:42;;;;;;;5.85;3.10;;;;;;;-17.66;73.53;100443.06;5054956;28;20045;-78
2021/12/28 08:06:14;;;;;;;3.85;3.20;;;;;;;-17.65;73.41;100435.69;5049082;28;20084;-78
2021/12/28 08:08:45;;;;;;;3.22;3.03;;;;;;;-17.69;73.14;100438.66;5042343;28;20045;-78
2021/12/28 08:11:18;;;;;;;3.92;3.15;;;;;;;-17.71;73.10;100444.22;5043635;28;20045;-78
2021/12/28 08:13:48;;;;;;;3.42;3.13;;;;;;;-17.81;72.86;100436.63;5042585;28;20048;-79
2021/12/28 08:16:19;;;;;;;3.65;3.35;;;;;;;-17.99;72.48;100421.59;5043963;28;20076;-77
2021/12/28 08:18:51;;;;;;;8.00;5.40;;;;;;;-17.92;72.70;100453.91;5041875;28;20053;-76
2021/12/28 08:21:43;;;;;;;9.30;5.43;;;;;;;-18.04;72.73;100442.72;5041574;28;20341;-78
2021/12/28 08:24:15;;;;;;;9.13;5.85;;;;;;;-18.10;72.47;100439.59;5041245;28;20068;-77
2021/12/28 08:26:47;;;;;;;7.60;6.05;;;;;;;-18.10;72.12;100457.06;5041008;28;20428;-77
2021/12/28 08:29:18;;;;;;;9.90;4.80;;;;;;;-18.25;71.85;100456.44;5040799;28;20055;-77
2021/12/28 08:31:49;;;;;;;3.85;3.55;;;;;;;-18.36;71.92;100457.88;5040671;28;20057;-77
2021/12/28 08:34:20;;;;;;;4.68;3.83;;;;;;;-18.47;72.13;100465.84;5040448;28;20108;-77
2021/12/28 08:36:51;;;;;;;2.50;2.38;;;;;;;-18.55;72.82;100449.25;5040383;28;20081;-79
2021/12/28 08:39:21;;;;;;;3.15;2.85;;;;;;;-18.44;72.70;100478.66;5040643;28;20301;-78
2021/12/28 08:41:54;;;;;;;4.50;3.10;;;;;;;-18.64;72.84;100443.34;5040246;28;20056;-77
2021/12/28 08:44:27;;;;;;;3.38;3.08;;;;;;;-18.39;72.96;100480.00;5039685;28;20109;-79
2021/12/28 08:46:59;;;;;;;3.55;3.25;;;;;;;-18.92;72.65;100380.81;5038205;28;20067;-80
2021/12/28 08:49:29;;;;;;;10.50;3.72;;;;;;;-18.39;72.42;100482.50;5032342;28;20050;-79
2021/12/28 08:52:00;;;;;;;8.45;3.97;;;;;;;-18.35;72.46;100489.53;5036271;28;20120;-78
2021/12/28 08:54:31;;;;;;;13.25;5.47;;;;;;;-18.37;72.16;100490.97;5037310;28;20048;-80
2021/12/28 08:57:04;;;;;;;3.40;3.10;;;;;;;-18.40;72.14;100480.72;5047569;28;20076;-78
2021/12/28 08:59:35;;;;;;;6.03;3.15;;;;;;;-18.21;71.89;100500.03;5042515;28;20116;-79
2021/12/28 09:02:07;;;;;;;4.82;3.58;;;;;;;-18.14;71.58;100494.91;5044609;28;20376;-80
2021/12/28 09:04:43;;;;;;;4.13;3.10;;;;;;;-18.18;71.21;100497.84;5042455;28;20053;-79
2021/12/28 09:07:14;;;;;;;9.77;5.63;;;;;;;-17.94;71.55;100489.41;5052766;28;20034;-80
2021/12/28 09:09:53;;;;;;;12.82;6.72;;;;;;;-17.72;71.07;100502.34;5052963;28;20041;-86
2021/12/28 09:12:46;;;;;;;31.95;11.88;;;;;;;-17.78;70.09;100501.75;5051715;28;20072;-78
2021/12/28 09:15:22;;;;;;;38.15;13.80;;;;;;;-18.08;69.55;100486.44;5045702;28;20046;-78
2021/12/28 09:17:53;;;;;;;53.42;16.48;;;;;;;-18.12;68.89;100503.41;5038093;28;20059;-79
2021/12/28 09:20:26;;;;;;;146.48;55.58;;;;;;;-18.24;69.07;100498.13;5039597;28;20053;-79
2021/12/28 09:23:14;;;;;;;66.75;28.02;;;;;;;-18.45;69.51;100496.81;5003187;28;20050;-78
2021/12/28 09:26:05;;;;;;;92.15;38.38;;;;;;;-18.49;69.58;100515.59;5035350;28;20100;-78
2021/12/28 09:28:38;;;;;;;59.47;25.13;;;;;;;-18.64;69.54;100518.09;5037310;28;20361;-78
2021/12/28 09:31:08;;;;;;;26.20;15.85;;;;;;;-18.70;69.78;100519.25;5035303;28;20048;-78
2021/12/28 09:33:39;;;;;;;24.25;12.75;;;;;;;-18.67;69.86;100527.78;5037490;28;20054;-79
2021/12/28 09:36:15;;;;;;;36.00;17.58;;;;;;;-18.70;70.11;100529.22;5033727;28;20341;-79
2021/12/28 09:38:46;;;;;;;19.42;9.73;;;;;;;-18.64;69.84;100538.03;5038414;28;20076;-77
2021/12/28 09:41:17;;;;;;;18.20;9.75;;;;;;;-18.59;69.78;100541.88;5036863;28;20061;-77
2021/12/28 09:43:50;;;;;;;27.17;11.00;;;;;;;-18.43;69.55;100542.75;5037081;28;20116;-78
2021/12/28 09:46:21;;;;;;;196.98;42.47;;;;;;;-18.56;69.27;100529.78;5035740;28;20076;-78
2021/12/28 09:48:52;;;;;;;249.60;54.83;;;;;;;-18.55;68.94;100553.94;5039130;28;20057;-78
2021/12/28 09:51:23;;;;;;;269.17;56.20;;;;;;;-18.71;68.87;100552.38;5037705;28;20053;-78
2021/12/28 09:53:54;;;;;;;153.98;36.90;;;;;;;-18.90;68.60;100520.47;5037285;28;20077;-78
2021/12/28 09:56:26;;;;;;;105.85;25.20;;;;;;;-18.73;68.45;100553.84;5029272;28;20389;-78
2021/12/28 09:58:59;;;;;;;34.50;14.05;;;;;;;-18.81;68.24;100543.84;5038435;28;20368;-77
2021/12/28 10:01:30;;;;;;;49.42;15.90;;;;;;;-18.94;68.37;100541.72;5037863;28;20053;-78
2021/12/28 10:04:01;;;;;;;40.38;16.33;;;;;;;-19.05;68.53;100537.22;5033869;28;20050;-78
2021/12/28 10:06:33;;;;;;;22.52;10.32;;;;;;;-19.23;68.58;100547.00;5036861;28;20096;-76
2021/12/28 10:09:09;;;;;;;18.30;7.95;;;;;;;-19.43;68.83;100536.56;5035962;28;20060;-75
2021/12/28 10:11:44;;;;;;;70.03;14.00;;;;;;;-19.51;69.01;100549.81;5036140;28;21005;-77
2021/12/28 10:14:19;;;;;;;33.35;10.98;;;;;;;-19.59;69.50;100547.41;5034148;28;20041;-76
2021/12/28 10:16:53;;;;;;;14.77;7.90;;;;;;;-19.75;69.53;100521.66;5036138;28;20041;-76
2021/12/28 10:19:36;;;;;;;9.95;5.18;;;;;;;-19.53;69.44;100553.75;5035026;28;20053;-76
2021/12/28 10:22:42;;;;;;;6.63;4.30;;;;;;;-19.46;69.64;100561.16;5033586;28;20108;-77
2021/12/28 10:25:15;;;;;;;11.57;2.97;;;;;;;-19.44;69.85;100564.66;4959195;29;20131;-77
2021/12/28 10:27:47;;;;;;;6.60;3.25;;;;;;;-19.46;69.72;100552.06;4961635;29;20130;-77
2021/12/28 10:30:27;;;;;;;6.50;4.35;;;;;;;-19.36;69.63;100554.81;5006300;28;20045;-77
2021/12/28 10:32:59;;;;;;;4.85;3.63;;;;;;;-19.34;69.29;100532.56;5038439;28;20094;-76
2021/12/28 10:35:32;;;;;;;3.00;2.80;;;;;;;-19.42;69.11;100518.41;5039820;28;20393;-77
2021/12/28 10:38:05;;;;;;;3.47;3.17;;;;;;;-19.31;68.51;100555.28;5041100;28;20085;-76
2021/12/28 10:40:38;;;;;;;19.30;8.55;;;;;;;-19.44;68.64;100544.75;5039624;28;20056;-76
2021/12/28 10:43:13;;;;;;;23.25;9.07;;;;;;;-19.40;68.73;100566.75;5042139;28;20112;-76
2021/12/28 10:45:47;;;;;;;20.70;9.65;;;;;;;-19.55;68.88;100555.19;5042246;28;20041;-77
2021/12/28 10:48:21;;;;;;;15.70;8.80;;;;;;;-19.55;69.15;100566.03;5041059;28;20305;-77
2021/12/28 10:50:54;;;;;;;12.10;6.32;;;;;;;-19.48;69.74;100560.09;5040625;28;20041;-77
2021/12/28 10:53:35;;;;;;;5.75;4.07;;;;;;;-19.46;69.29;100566.13;5039355;28;20433;-76
2021/12/28 10:56:09;;;;;;;4.75;4.25;;;;;;;-19.59;69.15;100554.88;5036236;28;20049;-79
2021/12/28 10:58:42;;;;;;;5.28;2.70;;;;;;;-19.84;69.40;100550.50;5039658;28;20092;-78
2021/12/28 11:01:18;;;;;;;3.92;2.63;;;;;;;-19.70;70.06;100565.31;5035934;28;20049;-81
2021/12/28 11:03:51;;;;;;;3.10;2.70;;;;;;;-19.70;70.23;100559.47;5037312;28;20342;-77
2021/12/28 11:06:24;;;;;;;11.70;5.78;;;;;;;-19.63;70.53;100556.88;5039264;28;20053;-77
2021/12/28 11:08:58;;;;;;;11.38;5.65;;;;;;;-19.47;70.37;100559.38;5040428;28;20135;-76
2021/12/28 11:11:30;;;;;;;27.08;12.40;;;;;;;-19.09;70.55;100565.91;5041169;28;20049;-76
2021/12/28 11:14:03;;;;;;;26.05;14.27;;;;;;;-18.85;70.30;100557.59;5041525;28;20047;-77
2021/12/28 11:16:37;;;;;;;16.50;10.13;;;;;;;-19.13;69.83;100503.16;5038972;28;20056;-78
2021/12/28 11:19:10;;;;;;;12.50;7.10;;;;;;;-18.61;69.76;100568.28;5041044;28;20049;-78
2021/12/28 11:21:51;;;;;;;6.32;3.80;;;;;;;-18.59;68.97;100561.84;5040832;28;20050;-78
2021/12/28 11:24:22;;;;;;;3.45;3.15;;;;;;;-18.68;68.18;100575.88;5041351;28;20050;-78
2021/12/28 11:26:53;;;;;;;3.00;2.58;;;;;;;-18.80;67.64;100573.88;5041085;28;20073;-79
2021/12/28 11:29:30;;;;;;;16.85;4.68;;;;;;;-18.74;67.64;100572.00;5041491;28;20113;-79
2021/12/28 11:32:05;;;;;;;50.42;11.65;;;;;;;-18.79;67.33;100568.19;5041376;28;20380;-78
2021/12/28 11:34:39;;;;;;;42.90;9.40;;;;;;;-19.11;66.27;100578.91;5041096;28;20092;-78
2021/12/28 11:37:12;;;;;;;38.53;10.73;;;;;;;-19.36;66.41;100563.88;5038451;28;20087;-78
2021/12/28 11:39:45;;;;;;;16.45;5.65;;;;;;;-19.43;66.55;100578.91;5038128;28;20372;-78